Flight Track Log - Related Links

Times and Time Zones

All times are in EDT time to prevent confusion due to time zone crossing. See the UCA4790 flight status page for this flight to view local times or setup timezone preferences in your user account.

Time Position Orientation Groundspeed Altitude Reporting Facility
EDT Latitude Longitude Course Direction KTS MPH feet Rate Location/Type
Wed 08:45:35 PM 41.4194 -81.8347 28° Northeast 111 128 1,500  Level Cleveland Center
Wed 08:46:18 PM 41.4425 -81.8186 28° Northeast 140 161 2,100 1,165 Climbing Cleveland Center
Wed 08:47:54 PM 41.4994 -81.7558 40° Northeast 168 193 4,200 1,308 Climbing Cleveland Center
Wed 08:48:54 PM 41.5147 -81.6950 71° East 163 188 5,500 1,200 Climbing Cleveland Center
Wed 08:49:54 PM 41.5361 -81.6372 64° Northeast 173 199 6,600 1,150 Climbing Cleveland Center
Wed 08:50:54 PM 41.5597 -81.5739 63° Northeast 173 199 7,800 1,200 Climbing Cleveland Center
Wed 08:51:54 PM 41.5808 -81.5131 65° Northeast 173 199 9,000 1,150 Climbing Cleveland Center
Wed 08:52:54 PM 41.6044 -81.4494 64° Northeast 173 199 10,100 1,100 Climbing Cleveland Center
Wed 08:53:54 PM 41.6278 -81.3858 64° Northeast 173 199 11,200 1,000 Climbing Cleveland Center
Wed 08:54:54 PM 41.6492 -81.3278 64° Northeast 178 205 12,100 950 Climbing Cleveland Center
Wed 08:55:54 PM 41.6703 -81.2614 67° East 188 216 13,100 1,000 Climbing Cleveland Center
Wed 08:56:54 PM 41.6894 -81.1922 70° East 195 224 14,100 1,000 Climbing Cleveland Center
Wed 08:57:54 PM 41.7106 -81.1256 67° East 195 224 15,100 950 Climbing Cleveland Center
Wed 08:58:54 PM 41.7339 -81.0533 67° East 195 224 16,000 900 Climbing Cleveland Center
Wed 08:59:54 PM 41.7550 -80.9839 68° East 195 224 16,900 850 Climbing Cleveland Center
Wed 09:00:54 PM 41.7781 -80.9033 69° East 195 224 17,700 850 Climbing Cleveland Center
Wed 09:01:54 PM 41.8014 -80.8311 67° East 205 236 18,600 900 Climbing Cleveland Center
Wed 09:02:54 PM 41.8244 -80.7558 68° East 210 242 19,500 800 Climbing Cleveland Center
Wed 09:03:54 PM 41.8453 -80.6864 68° East 210 242 20,200 700 Climbing Cleveland Center
Wed 09:04:54 PM 41.8683 -80.6139 67° East 210 242 20,900 400 Climbing Cleveland Center
Wed 09:05:54 PM 41.8911 -80.5358 69° East 215 247 21,000 50 Climbing Cleveland Center
Wed 09:06:54 PM 41.9183 -80.4464 68° East 237 273 21,000  Level Cleveland Center
Wed 09:07:54 PM 41.9453 -80.3542 69° East 250 288 21,000  Level Cleveland Center
Wed 09:08:54 PM 41.9742 -80.2647 66° East 250 288 21,000  Level Cleveland Center
Wed 09:09:54 PM 41.9969 -80.1836 69° East 250 288 21,000  Level Cleveland Center
Wed 09:10:54 PM 42.0236 -80.0911 69° East 256 295 21,000  Level Cleveland Center
Wed 09:11:54 PM 42.0503 -80.0017 68° East 256 295 21,000  Level Cleveland Center
Wed 09:12:54 PM 42.0769 -79.9117 68° East 256 295 21,000  Level Cleveland Center
Wed 09:13:54 PM 42.1033 -79.8192 69° East 256 295 21,000  Level Cleveland Center
Wed 09:14:54 PM 42.1297 -79.7292 68° East 256 295 21,000  Level Cleveland Center
Wed 09:15:54 PM 42.1583 -79.6364 67° East 256 295 21,000  Level Cleveland Center
Wed 09:16:54 PM 42.1825 -79.5464 70° East 256 295 21,000  Level Cleveland Center
Wed 09:17:54 PM 42.2089 -79.4564 68° East 256 295 21,000  Level Cleveland Center
Wed 09:18:54 PM 42.2369 -79.3633 68° East 256 295 21,000  Level Cleveland Center
Wed 09:19:54 PM 42.2650 -79.2644 69° East 256 295 21,000  Level Cleveland Center
Wed 09:20:54 PM 42.2911 -79.1714 69° East 256 295 21,000  Level Cleveland Center
Wed 09:21:54 PM 42.3172 -79.0836 68° East 256 295 21,000  Level Cleveland Center
Wed 09:22:54 PM 42.3431 -78.9903 69° East 256 295 21,000  Level Cleveland Center
Wed 09:23:54 PM 42.3628 -78.9197 69° East 256 295 21,000  Level Cleveland Center
Wed 09:24:54 PM 42.3925 -78.8178 68° East 256 295 21,000  Level Cleveland Center
Wed 09:25:54 PM 42.4181 -78.7242 70° East 256 295 21,000  Level Cleveland Center
Wed 09:26:54 PM 42.4417 -78.6333 71° East 256 295 21,000  Level Cleveland Center
Wed 09:27:54 PM 42.4692 -78.5397 68° East 256 295 21,000  Level Cleveland Center
Wed 09:28:54 PM 42.4947 -78.4514 69° East 256 295 21,000  Level Cleveland Center
Wed 09:29:54 PM 42.5200 -78.3606 69° East 256 295 21,000  Level Cleveland Center
Wed 09:30:54 PM 42.5453 -78.2667 70° East 256 295 21,000  Level Cleveland Center
Wed 09:31:54 PM 42.5706 -78.1756 69° East 256 295 21,000  Level Cleveland Center
Wed 09:32:54 PM 42.5958 -78.0842 69° East 256 295 21,000  Level Cleveland Center
Wed 09:33:54 PM 42.6208 -77.9928 70° East 256 295 21,000  Level Cleveland Center
Wed 09:34:54 PM 42.6458 -77.8986 70° East 256 295 21,000 -450 Level Cleveland Center
Wed 09:35:54 PM 42.6686 -77.8017 72° East 256 295 20,100 -1,050 Descending Cleveland Center
Wed 09:36:54 PM 42.6994 -77.7042 67° East 269 310 18,900 -1,200 Descending Cleveland Center
Wed 09:37:54 PM 42.7278 -77.5928 71° East 275 316 17,700 -1,200 Descending Cleveland Center
Wed 09:38:54 PM 42.7544 -77.4897 71° East 275 316 16,500 -1,200 Descending Cleveland Center
Wed 09:39:54 PM 42.7808 -77.3922 70° East 275 316 15,300 -1,200 Descending Cleveland Center
Wed 09:40:54 PM 42.8072 -77.2944 70° East 270 311 14,100 -1,200 Descending Cleveland Center
Wed 09:41:54 PM 42.8336 -77.1942 70° East 270 311 12,900 -1,200 Descending Cleveland Center
Wed 09:42:54 PM 42.8558 -77.1022 72° East 270 311 11,700 -950 Descending Cleveland Center
Wed 09:43:54 PM 42.8822 -77.0100 69° East 270 311 11,000 -240 Descending Cleveland Center
Wed 09:45:49 PM 42.9258 -76.8444 70° East 241 277 11,000 -497 Level Boston Center
Wed 09:46:43 PM 42.9456 -76.7664 71° East 242 278 9,600 -1,646 Descending Boston Center
Wed 09:47:42 PM 42.9761 -76.6775 65° Northeast 254 292 7,900 -1,623 Descending Boston Center
Wed 09:48:45 PM 43.0081 -76.5975 61° Northeast 252 290 6,300 -1,317 Descending Boston Center
Wed 09:49:45 PM 43.0403 -76.5172 61° Northeast 240 276 5,200 -1,041 Descending Boston Center
Wed 09:50:46 PM 43.0742 -76.4428 58° Northeast 225 259 4,200 -678 Descending Boston Center
Wed 09:51:40 PM 43.0972 -76.3758 65° Northeast 213 245 3,900 -678 Descending Boston Center
Wed 09:52:41 PM 43.0997 -76.3022 87° East 194 223 2,900 -934 Descending Boston Center
Wed 09:53:42 PM 43.1019 -76.2369 87° East 162 186 2,000 -807 Descending Boston Center
Wed 09:54:40 PM 43.1078 -76.1858 81° East 128 147 1,300 -724 Descending Boston Center

Login

Don't have an account? Register now (free) for customized features, flight alerts, and more!